createdAt,value
2022-12-12T00:00:57.468Z,85.05
2022-12-12T00:03:27.689Z,85.21
2022-12-12T00:05:56.722Z,84.93
2022-12-12T00:08:24.492Z,85.06
2022-12-12T00:10:52.180Z,85.06
2022-12-12T00:13:19.863Z,85.15
2022-12-12T00:15:47.597Z,84.78
2022-12-12T00:18:15.240Z,84.76
2022-12-12T00:20:42.981Z,85.06
2022-12-12T00:23:10.583Z,85.04
2022-12-12T00:25:38.212Z,85.10
2022-12-12T00:28:05.973Z,85.06
2022-12-12T00:30:33.661Z,85.15
2022-12-12T00:33:01.308Z,85.21
2022-12-12T00:35:28.979Z,85.27
2022-12-12T00:37:56.761Z,85.32
2022-12-12T00:40:24.395Z,85.27
2022-12-12T00:42:52.080Z,85.28
2022-12-12T00:45:19.773Z,85.26
2022-12-12T00:47:47.406Z,85.18
2022-12-12T00:50:15.092Z,85.44
2022-12-12T00:52:42.855Z,85.53
2022-12-12T00:55:15.487Z,85.62
2022-12-12T00:57:43.410Z,85.35
2022-12-12T01:00:15.028Z,85.16
2022-12-12T01:02:42.814Z,85.19
2022-12-12T01:05:11.697Z,85.35
2022-12-12T01:07:39.676Z,85.38
2022-12-12T01:10:08.684Z,85.21
2022-12-12T01:12:36.749Z,85.50
2022-12-12T01:15:06.690Z,85.85
2022-12-12T01:17:39.024Z,86.02
2022-12-12T01:20:08.820Z,85.90
2022-12-12T01:22:38.271Z,85.65
2022-12-12T01:25:06.129Z,86.28
2022-12-12T01:27:33.914Z,86.19
2022-12-12T01:30:03.464Z,86.29
2022-12-12T01:32:31.114Z,86.51
2022-12-12T01:34:58.929Z,86.28
2022-12-12T01:37:27.056Z,86.40
2022-12-12T01:39:54.757Z,86.24
2022-12-12T01:42:22.406Z,86.47
2022-12-12T01:44:52.960Z,86.65
2022-12-12T01:47:22.712Z,86.83
2022-12-12T01:50:04.500Z,86.94
2022-12-12T01:52:35.498Z,87.15
2022-12-12T01:55:06.515Z,87.15
2022-12-12T01:57:41.053Z,87.50
2022-12-12T02:00:11.210Z,87.70
2022-12-12T02:02:40.644Z,87.43
2022-12-12T02:05:18.178Z,87.42
2022-12-12T02:07:45.950Z,87.36
2022-12-12T02:10:14.119Z,87.70
2022-12-12T02:12:41.934Z,87.49
2022-12-12T02:15:10.368Z,87.97
2022-12-12T02:17:49.862Z,87.86
2022-12-12T02:20:45.773Z,88.39
2022-12-12T02:23:45.336Z,88.22
2022-12-12T02:26:44.037Z,88.36
2022-12-12T02:29:21.374Z,88.17
2022-12-12T02:32:28.040Z,88.05
2022-12-12T02:35:18.088Z,87.91
2022-12-12T02:37:54.404Z,88.35
2022-12-12T02:40:35.720Z,88.48
2022-12-12T02:43:35.090Z,88.10
2022-12-12T02:46:12.597Z,88.33
2022-12-12T02:48:52.265Z,88.42
2022-12-12T02:51:21.051Z,88.25
2022-12-12T02:53:48.834Z,88.18
2022-12-12T02:56:44.508Z,88.24
2022-12-12T02:59:17.647Z,88.06
2022-12-12T03:02:08.310Z,87.41
2022-12-12T03:05:16.667Z,87.75
2022-12-12T03:08:12.702Z,87.49
2022-12-12T03:11:04.840Z,87.23
2022-12-12T03:13:54.245Z,87.43
2022-12-12T03:16:34.013Z,87.53
2022-12-12T03:19:11.916Z,87.59
2022-12-12T03:21:51.779Z,87.56
2022-12-12T03:24:49.126Z,87.02
2022-12-12T03:27:26.259Z,87.12
2022-12-12T03:30:00.149Z,87.20
2022-12-12T03:32:34.588Z,87.31
2022-12-12T03:35:12.319Z,87.44
2022-12-12T03:37:46.904Z,87.63
2022-12-12T03:40:20.672Z,87.88
2022-12-12T03:43:01.752Z,87.47
2022-12-12T03:45:48.321Z,87.80
2022-12-12T03:48:35.634Z,87.89
2022-12-12T03:51:12.719Z,87.93
2022-12-12T03:53:44.523Z,87.86
2022-12-12T03:56:30.836Z,88.26
2022-12-12T03:59:27.021Z,88.39
2022-12-12T04:02:01.150Z,88.23
2022-12-12T04:04:52.013Z,88.37
2022-12-12T04:07:36.660Z,88.17
2022-12-12T04:10:24.380Z,88.09
2022-12-12T04:13:11.824Z,88.12
2022-12-12T04:16:05.420Z,87.91
2022-12-12T04:18:42.062Z,87.80
2022-12-12T04:21:43.625Z,87.67
2022-12-12T04:24:29.233Z,87.79
2022-12-12T04:27:03.964Z,87.79
2022-12-12T04:29:54.517Z,87.70
2022-12-12T04:32:53.583Z,87.33
2022-12-12T04:35:26.528Z,87.30
2022-12-12T04:37:57.512Z,87.60
2022-12-12T04:40:32.277Z,87.42
2022-12-12T04:43:17.545Z,87.48
2022-12-12T04:45:49.477Z,87.45
2022-12-12T04:48:26.623Z,87.43
2022-12-12T04:50:54.898Z,87.15
2022-12-12T04:53:35.778Z,87.33
2022-12-12T04:56:10.632Z,86.92
2022-12-12T04:58:40.661Z,86.96
2022-12-12T05:01:20.276Z,87.26
2022-12-12T05:03:57.212Z,86.73
2022-12-12T05:06:51.532Z,86.99
2022-12-12T05:09:20.604Z,87.22
2022-12-12T05:11:49.400Z,86.81
2022-12-12T05:14:18.508Z,87.29
2022-12-12T05:16:51.047Z,87.25
2022-12-12T05:19:18.788Z,87.26
2022-12-12T05:21:46.638Z,86.96
2022-12-12T05:24:14.249Z,87.13
2022-12-12T05:26:42.325Z,87.09
2022-12-12T05:29:10.022Z,87.09
2022-12-12T05:31:37.720Z,87.17
2022-12-12T05:34:06.277Z,87.29
2022-12-12T05:36:33.918Z,87.28
2022-12-12T05:39:01.579Z,87.59
2022-12-12T05:41:29.239Z,87.61
2022-12-12T05:43:56.912Z,88.00
2022-12-12T05:46:24.610Z,87.85
2022-12-12T05:48:52.760Z,87.42
2022-12-12T05:51:21.408Z,87.38
2022-12-12T05:53:49.106Z,87.54
2022-12-12T05:56:16.889Z,87.36
2022-12-12T05:58:44.687Z,87.53
2022-12-12T06:01:12.616Z,87.45
2022-12-12T06:03:40.330Z,87.29
2022-12-12T06:06:08.083Z,87.09
2022-12-12T06:08:35.808Z,87.17
2022-12-12T06:11:07.606Z,87.38
2022-12-12T06:13:36.177Z,87.48
2022-12-12T06:16:16.943Z,87.23
2022-12-12T06:18:45.615Z,87.01
2022-12-12T06:21:14.206Z,87.29
2022-12-12T06:23:43.956Z,87.32
2022-12-12T06:26:13.816Z,87.50
2022-12-12T06:28:42.490Z,87.43
2022-12-12T06:31:12.266Z,87.31
2022-12-12T06:33:41.687Z,87.16
2022-12-12T06:36:25.177Z,87.74
2022-12-12T06:38:53.924Z,87.61
2022-12-12T06:41:22.515Z,87.82
2022-12-12T06:43:50.413Z,88.26
2022-12-12T06:46:24.376Z,88.13
2022-12-12T06:48:52.914Z,88.17
2022-12-12T06:51:23.699Z,88.10
2022-12-12T06:53:51.569Z,88.26
2022-12-12T06:56:24.460Z,88.25
2022-12-12T06:58:52.929Z,88.40
2022-12-12T07:01:22.598Z,88.14
2022-12-12T07:03:51.840Z,88.03
2022-12-12T07:06:21.525Z,87.88
2022-12-12T07:08:49.556Z,88.06
2022-12-12T07:11:20.978Z,87.86
2022-12-12T07:13:50.088Z,88.13
2022-12-12T07:16:18.661Z,87.60
2022-12-12T07:18:46.867Z,87.72
2022-12-12T07:21:17.254Z,87.60
2022-12-12T07:23:45.439Z,88.35
2022-12-12T07:26:16.080Z,88.78
2022-12-12T07:28:43.887Z,86.13
2022-12-12T07:31:15.132Z,85.82
2022-12-12T07:33:44.666Z,86.68
2022-12-12T07:36:14.192Z,86.39
2022-12-12T07:38:42.322Z,86.64
2022-12-12T07:41:12.753Z,86.40
2022-12-12T07:43:44.387Z,86.20
2022-12-12T07:46:15.682Z,86.23
2022-12-12T07:48:43.570Z,85.36
2022-12-12T07:51:11.274Z,85.59
2022-12-12T07:53:38.985Z,84.62
2022-12-12T07:56:12.887Z,85.12
2022-12-12T07:58:41.153Z,85.02
2022-12-12T08:01:15.308Z,84.86
2022-12-12T08:03:47.937Z,84.72
2022-12-12T08:06:19.971Z,84.73
2022-12-12T08:08:48.821Z,84.98
2022-12-12T08:11:19.263Z,84.60
2022-12-12T08:13:47.503Z,84.59
2022-12-12T08:16:21.794Z,84.88
2022-12-12T08:18:50.528Z,85.05
2022-12-12T08:21:25.152Z,84.56
2022-12-12T08:24:00.559Z,84.93
2022-12-12T08:26:29.327Z,84.81
2022-12-12T08:28:57.975Z,85.15
2022-12-12T08:31:26.511Z,85.19
2022-12-12T08:33:54.843Z,85.24
2022-12-12T08:36:25.637Z,85.02
2022-12-12T08:38:53.700Z,84.61
2022-12-12T08:41:21.830Z,84.50
2022-12-12T08:43:49.642Z,84.78
2022-12-12T08:46:19.215Z,84.44
2022-12-12T08:48:47.764Z,84.11
2022-12-12T08:51:17.949Z,84.08
2022-12-12T08:53:47.589Z,83.72
2022-12-12T08:56:16.485Z,83.88
2022-12-12T08:58:44.697Z,83.98
2022-12-12T09:01:14.689Z,84.27
2022-12-12T09:03:42.444Z,84.02
2022-12-12T09:06:11.461Z,83.94
2022-12-12T09:08:39.944Z,83.89
2022-12-12T09:11:08.556Z,84.16
2022-12-12T09:13:37.579Z,84.06
2022-12-12T09:16:06.944Z,83.70
2022-12-12T09:18:35.825Z,83.97
2022-12-12T09:21:04.342Z,83.45
2022-12-12T09:23:32.072Z,83.82
2022-12-12T09:25:59.873Z,83.43
2022-12-12T09:28:28.053Z,83.48
2022-12-12T09:30:56.254Z,83.48
2022-12-12T09:33:24.000Z,83.10
2022-12-12T09:36:02.446Z,83.40
2022-12-12T09:38:30.816Z,83.06
2022-12-12T09:41:10.624Z,83.15
2022-12-12T09:44:00.819Z,83.08
2022-12-12T09:46:40.833Z,82.89
2022-12-12T09:49:36.033Z,82.79
2022-12-12T09:52:10.520Z,82.66
2022-12-12T09:54:38.158Z,82.76
2022-12-12T09:57:25.874Z,82.44
2022-12-12T10:00:09.184Z,81.59
2022-12-12T10:03:14.487Z,80.73
2022-12-12T10:06:20.536Z,81.20
2022-12-12T10:09:08.737Z,81.85
2022-12-12T10:11:55.608Z,81.12
2022-12-12T10:14:38.053Z,80.41
2022-12-12T10:17:12.596Z,80.09
2022-12-12T10:19:49.149Z,79.03
2022-12-12T10:22:30.149Z,79.74
2022-12-12T10:25:07.213Z,79.92
2022-12-12T10:27:35.657Z,79.81
2022-12-12T10:30:16.677Z,78.40
2022-12-12T10:33:02.716Z,78.90
2022-12-12T10:35:44.557Z,79.49
2022-12-12T10:38:21.917Z,77.93
2022-12-12T10:40:58.612Z,77.18
2022-12-12T10:43:38.714Z,78.37
2022-12-12T10:46:09.510Z,78.46
2022-12-12T10:48:37.231Z,75.58
2022-12-12T10:51:09.749Z,77.67
2022-12-12T10:53:37.499Z,78.04
2022-12-12T10:56:09.851Z,77.53
2022-12-12T10:58:45.735Z,76.90
2022-12-12T11:02:08.487Z,74.90
2022-12-12T11:04:25.270Z,75.55
2022-12-12T11:06:55.040Z,76.19
2022-12-12T11:09:28.433Z,76.78
2022-12-12T11:12:04.001Z,75.78
2022-12-12T11:14:39.079Z,75.19
2022-12-12T11:17:22.066Z,75.83
2022-12-12T11:19:49.834Z,76.08
2022-12-12T11:22:17.628Z,75.23
2022-12-12T11:24:48.119Z,76.02
2022-12-12T11:27:32.023Z,75.99
2022-12-12T11:30:24.004Z,75.69
2022-12-12T11:32:55.931Z,75.07
2022-12-12T11:35:28.256Z,73.33
2022-12-12T11:38:02.010Z,74.89
2022-12-12T11:40:37.911Z,73.89
2022-12-12T11:43:25.204Z,73.95
2022-12-12T11:46:15.890Z,72.90
2022-12-12T11:48:57.422Z,72.12
2022-12-12T11:51:51.329Z,72.24
2022-12-12T11:54:27.546Z,72.48
2022-12-12T11:57:04.525Z,72.94
2022-12-12T11:59:43.740Z,73.44
2022-12-12T12:02:35.903Z,73.01
2022-12-12T12:05:30.909Z,72.06
2022-12-12T12:08:37.172Z,72.90
2022-12-12T12:11:31.095Z,73.31
2022-12-12T12:14:31.259Z,72.75
2022-12-12T12:17:25.625Z,71.92
2022-12-12T12:20:01.993Z,71.70
2022-12-12T12:22:32.594Z,72.64
2022-12-12T12:25:28.012Z,73.13
2022-12-12T12:28:17.440Z,71.94
2022-12-12T12:31:00.896Z,71.73
2022-12-12T12:33:48.899Z,71.20
2022-12-12T12:36:27.602Z,72.07
2022-12-12T12:39:19.710Z,70.77
2022-12-12T12:42:24.891Z,70.75
2022-12-12T12:45:14.216Z,71.55
2022-12-12T12:47:53.509Z,71.84
2022-12-12T12:50:46.837Z,71.85
2022-12-12T12:54:00.580Z,72.38
2022-12-12T12:56:31.811Z,72.28
2022-12-12T12:59:02.876Z,71.69
2022-12-12T13:01:36.225Z,72.16
2022-12-12T13:04:20.213Z,72.50
2022-12-12T13:06:47.776Z,71.97
2022-12-12T13:09:39.460Z,71.81
2022-12-12T13:12:22.458Z,71.79
2022-12-12T13:14:56.071Z,71.48
2022-12-12T13:17:31.997Z,71.52
2022-12-12T13:19:59.901Z,70.63
2022-12-12T13:22:44.062Z,71.85
2022-12-12T13:25:30.092Z,71.31
2022-12-12T13:28:00.963Z,71.76
2022-12-12T13:31:03.873Z,71.71
2022-12-12T13:33:48.156Z,71.50
2022-12-12T13:36:29.669Z,71.75
2022-12-12T13:39:01.222Z,71.64
2022-12-12T13:41:49.224Z,71.84
2022-12-12T13:44:40.334Z,72.36
2022-12-12T13:47:23.137Z,71.40
2022-12-12T13:50:00.537Z,70.75
2022-12-12T13:52:28.185Z,71.16
2022-12-12T13:55:02.778Z,71.51
2022-12-12T13:57:32.212Z,71.98
2022-12-12T14:00:00.105Z,72.29
2022-12-12T14:02:34.957Z,72.55
2022-12-12T14:05:16.605Z,72.03
2022-12-12T14:07:53.944Z,72.59
2022-12-12T14:10:35.264Z,72.55
2022-12-12T14:13:28.028Z,72.54
2022-12-12T14:15:58.328Z,72.34
2022-12-12T14:18:51.923Z,73.13
2022-12-12T14:21:22.294Z,72.61
2022-12-12T14:23:52.280Z,73.36
2022-12-12T14:26:29.040Z,72.92
2022-12-12T14:29:18.192Z,73.43
2022-12-12T14:32:02.556Z,73.55
2022-12-12T14:34:46.576Z,73.74
2022-12-12T14:37:14.192Z,73.79
2022-12-12T14:39:48.046Z,73.68
2022-12-12T14:43:19.832Z,74.05
2022-12-12T14:45:36.039Z,73.87
2022-12-12T14:48:19.066Z,74.21
2022-12-12T14:50:57.472Z,74.25
2022-12-12T14:53:45.983Z,74.46
2022-12-12T14:56:22.986Z,74.06
2022-12-12T14:59:01.712Z,74.49
2022-12-12T15:01:38.841Z,74.57
2022-12-12T15:04:14.026Z,74.46
2022-12-12T15:06:44.073Z,74.21
2022-12-12T15:09:36.008Z,74.35
2022-12-12T15:12:12.757Z,74.61
2022-12-12T15:14:52.945Z,75.09
2022-12-12T15:17:28.417Z,75.04
2022-12-12T15:20:04.972Z,75.37
2022-12-12T15:22:35.448Z,75.59
2022-12-12T15:25:19.225Z,75.24
2022-12-12T15:27:55.700Z,74.95
2022-12-12T15:30:40.492Z,75.01
2022-12-12T15:33:38.760Z,74.87
2022-12-12T15:36:18.989Z,74.94
2022-12-12T15:38:46.778Z,74.86
2022-12-12T15:41:15.498Z,75.17
2022-12-12T15:43:44.392Z,75.31
2022-12-12T15:46:16.386Z,75.33
2022-12-12T15:48:45.606Z,75.69
2022-12-12T15:51:18.357Z,75.48
2022-12-12T15:53:52.279Z,75.73
2022-12-12T15:56:22.672Z,76.21
2022-12-12T15:59:00.075Z,76.17
2022-12-12T16:01:30.184Z,76.36
2022-12-12T16:03:59.995Z,76.36
2022-12-12T16:06:30.595Z,76.29
2022-12-12T16:09:02.854Z,76.41
2022-12-12T16:11:50.477Z,76.60
2022-12-12T16:14:42.364Z,76.72
2022-12-12T16:17:22.766Z,76.83
2022-12-12T16:20:04.058Z,76.68
2022-12-12T16:22:37.684Z,76.85
2022-12-12T16:25:21.049Z,76.97
2022-12-12T16:28:09.239Z,77.19
2022-12-12T16:30:38.627Z,77.44
2022-12-12T16:33:36.500Z,77.19
2022-12-12T16:36:07.509Z,77.13
2022-12-12T16:38:36.167Z,77.14
2022-12-12T16:41:15.641Z,77.07
2022-12-12T16:43:43.350Z,76.97
2022-12-12T16:46:20.513Z,77.08
2022-12-12T16:48:49.033Z,77.16
2022-12-12T16:51:19.284Z,77.49
2022-12-12T16:53:46.977Z,78.01
2022-12-12T16:56:14.688Z,78.06
2022-12-12T16:58:42.314Z,78.14
2022-12-12T17:01:11.153Z,78.06
2022-12-12T17:03:38.932Z,78.30
2022-12-12T17:06:06.968Z,78.67
2022-12-12T17:08:34.702Z,78.09
2022-12-12T17:11:10.040Z,77.86
2022-12-12T17:13:41.976Z,77.79
2022-12-12T17:16:09.723Z,77.86
2022-12-12T17:18:37.440Z,77.82
2022-12-12T17:21:05.107Z,77.93
2022-12-12T17:23:32.995Z,77.81
2022-12-12T17:26:04.965Z,77.92
2022-12-12T17:28:34.829Z,78.14
2022-12-12T17:31:03.413Z,78.37
2022-12-12T17:33:31.463Z,78.98
2022-12-12T17:36:04.463Z,79.13
2022-12-12T17:38:32.389Z,79.75
2022-12-12T17:41:05.248Z,80.28
2022-12-12T17:43:33.058Z,80.28
2022-12-12T17:46:03.437Z,80.34
2022-12-12T17:48:33.429Z,80.45
2022-12-12T17:51:06.246Z,80.64
2022-12-12T17:53:39.352Z,80.71
2022-12-12T17:56:12.423Z,81.40
2022-12-12T17:58:43.242Z,81.31
2022-12-12T18:01:13.596Z,81.35
2022-12-12T18:03:42.027Z,81.56
2022-12-12T18:06:10.462Z,81.05
2022-12-12T18:08:39.138Z,81.13
2022-12-12T18:11:08.950Z,81.37
2022-12-12T18:13:37.181Z,81.72
2022-12-12T18:16:05.067Z,81.21
2022-12-12T18:18:33.452Z,81.46
2022-12-12T18:21:12.968Z,81.21
2022-12-12T18:23:44.019Z,81.71
2022-12-12T18:26:23.524Z,81.16
2022-12-12T18:28:55.936Z,81.19
2022-12-12T18:31:23.970Z,81.44
2022-12-12T18:33:52.713Z,81.22
2022-12-12T18:36:23.159Z,81.46
2022-12-12T18:38:51.474Z,81.53
2022-12-12T18:41:19.362Z,81.55
2022-12-12T18:43:47.158Z,81.99
2022-12-12T18:46:17.855Z,81.89
2022-12-12T18:48:47.474Z,81.91
2022-12-12T18:51:18.124Z,82.36
2022-12-12T18:53:47.100Z,82.37
2022-12-12T18:56:17.671Z,82.19
2022-12-12T18:58:45.911Z,82.70
2022-12-12T19:01:19.723Z,83.13
2022-12-12T19:03:50.078Z,83.19
2022-12-12T19:06:21.043Z,83.35
2022-12-12T19:08:49.888Z,83.84
2022-12-12T19:11:18.312Z,82.66
2022-12-12T19:13:47.589Z,82.51
2022-12-12T19:16:18.629Z,82.61
2022-12-12T19:18:47.062Z,82.24
2022-12-12T19:21:21.936Z,81.57
2022-12-12T19:23:50.244Z,81.62
2022-12-12T19:26:28.020Z,81.65
2022-12-12T19:29:05.541Z,82.03
2022-12-12T19:31:37.183Z,81.57
2022-12-12T19:34:07.463Z,81.74
2022-12-12T19:36:37.006Z,82.51
2022-12-12T19:39:07.384Z,81.98
2022-12-12T19:41:35.979Z,81.91
2022-12-12T19:44:04.395Z,81.97
2022-12-12T19:46:33.600Z,81.60
2022-12-12T19:49:04.130Z,81.21
2022-12-12T19:51:37.315Z,81.40
2022-12-12T19:54:11.251Z,81.37
2022-12-12T19:56:41.956Z,80.85
2022-12-12T19:59:12.621Z,80.83
2022-12-12T20:01:40.987Z,80.96
2022-12-12T20:04:20.442Z,81.47
2022-12-12T20:06:50.404Z,80.87
2022-12-12T20:09:24.200Z,80.93
2022-12-12T20:11:52.000Z,80.98
2022-12-12T20:14:22.454Z,80.69
2022-12-12T20:16:51.780Z,80.31
2022-12-12T20:19:20.766Z,80.16
2022-12-12T20:22:04.801Z,80.23
2022-12-12T20:24:34.286Z,79.87
2022-12-12T20:27:04.628Z,79.71
2022-12-12T20:29:32.555Z,79.44
2022-12-12T20:32:00.881Z,79.57
2022-12-12T20:34:29.499Z,79.46
2022-12-12T20:36:57.329Z,79.86
2022-12-12T20:39:26.835Z,79.19
2022-12-12T20:41:55.068Z,79.52
2022-12-12T20:44:25.082Z,79.33
2022-12-12T20:46:53.628Z,79.24
2022-12-12T20:49:23.528Z,78.80
2022-12-12T20:51:56.570Z,78.53
2022-12-12T20:54:26.370Z,78.07
2022-12-12T20:56:55.574Z,78.02
2022-12-12T20:59:23.285Z,77.72
2022-12-12T21:01:51.180Z,76.58
2022-12-12T21:04:18.986Z,77.27
2022-12-12T21:06:50.567Z,77.50
2022-12-12T21:09:24.234Z,77.47
2022-12-12T21:11:58.817Z,77.49
2022-12-12T21:14:28.416Z,77.61
2022-12-12T21:16:56.521Z,77.55
2022-12-12T21:19:24.629Z,78.06
2022-12-12T21:21:53.324Z,78.15
2022-12-12T21:24:21.545Z,77.74
2022-12-12T21:26:49.568Z,78.06
2022-12-12T21:29:17.837Z,78.37
2022-12-12T21:31:51.529Z,78.63
2022-12-12T21:34:26.129Z,78.77
2022-12-12T21:36:55.664Z,78.68
2022-12-12T21:39:28.594Z,78.40
2022-12-12T21:41:57.410Z,78.18
2022-12-12T21:44:25.822Z,77.94
2022-12-12T21:46:53.742Z,78.20
2022-12-12T21:49:27.412Z,78.22
2022-12-12T21:51:59.116Z,77.74
2022-12-12T21:54:27.916Z,76.88
2022-12-12T21:56:57.181Z,77.45
2022-12-12T21:59:25.892Z,77.62
2022-12-12T22:02:01.157Z,77.48
2022-12-12T22:04:29.370Z,77.29
2022-12-12T22:07:00.324Z,77.20
2022-12-12T22:09:28.363Z,77.28
2022-12-12T22:12:02.961Z,77.38
2022-12-12T22:14:32.241Z,77.32
2022-12-12T22:17:00.056Z,77.18
2022-12-12T22:19:27.914Z,76.99
2022-12-12T22:21:55.715Z,76.55
2022-12-12T22:24:23.487Z,76.37
2022-12-12T22:26:51.945Z,76.38
2022-12-12T22:29:21.261Z,76.12
2022-12-12T22:31:51.080Z,75.82
2022-12-12T22:34:22.328Z,75.45
2022-12-12T22:36:50.964Z,74.79
2022-12-12T22:39:24.739Z,75.16
2022-12-12T22:41:53.560Z,75.15
2022-12-12T22:44:23.706Z,75.15
2022-12-12T22:46:53.273Z,76.10
2022-12-12T22:49:23.681Z,76.13
2022-12-12T22:51:51.593Z,76.55
2022-12-12T22:54:19.751Z,76.33
2022-12-12T22:56:47.367Z,76.33
2022-12-12T22:59:15.503Z,75.71
2022-12-12T23:01:43.600Z,76.39
2022-12-12T23:04:15.406Z,76.40
2022-12-12T23:06:44.199Z,76.29
2022-12-12T23:09:21.703Z,76.09
2022-12-12T23:11:49.442Z,75.91
2022-12-12T23:14:22.583Z,75.61
2022-12-12T23:16:51.625Z,75.51
2022-12-12T23:19:22.415Z,75.61
2022-12-12T23:21:50.556Z,76.09
2022-12-12T23:24:18.282Z,75.99
2022-12-12T23:26:46.167Z,75.34
2022-12-12T23:29:17.292Z,75.01
2022-12-12T23:31:45.990Z,75.68
2022-12-12T23:34:21.726Z,75.93
2022-12-12T23:36:50.665Z,75.46
2022-12-12T23:39:18.518Z,75.34
2022-12-12T23:41:46.334Z,75.02
2022-12-12T23:44:16.302Z,75.54
2022-12-12T23:46:45.072Z,75.58
2022-12-12T23:49:20.525Z,75.61
2022-12-12T23:51:49.300Z,75.00
2022-12-12T23:54:20.005Z,75.32
2022-12-12T23:56:48.748Z,75.23
2022-12-12T23:59:18.386Z,75.18
